Time;durP1;ratioP1;P1;durP2;ratioP2;P2;SDS_P1;SDS_P2;PMS_P1;PMS_P2;Temp;Humidity;BMP_temperature;BMP_pressure;BME280_temperature;BME280_humidity;BME280_pressure;Samples;Min_cycle;Max_cycle;Signal;HPM_P1;HPM_P2
2022/06/12 15:23:43;;;;;;;6.85;3.20;;;;;;;24.55;53.54;98214.88;5070434;28;20382;-80
2022/06/12 15:31:42;;;;;;;7.55;2.97;;;;;;;24.74;51.87;98207.72;5069197;28;20259;-81
2022/06/12 15:34:09;;;;;;;5.22;2.80;;;;;;;24.77;51.33;98208.34;5070887;28;20087;-80
2022/06/12 15:36:34;;;;;;;6.13;2.75;;;;;;;24.80;51.08;98210.56;5039993;28;20032;-78
2022/06/12 15:39:00;;;;;;;4.15;2.28;;;;;;;24.84;50.84;98222.41;5083660;28;20036;-85
2022/06/12 15:41:25;;;;;;;8.30;2.00;;;;;;;24.78;50.54;98234.81;5073851;28;20040;-86
2022/06/12 15:43:51;;;;;;;5.47;2.30;;;;;;;24.90;51.14;98233.03;5067023;28;20039;-82
2022/06/12 15:46:18;;;;;;;7.95;1.90;;;;;;;24.99;50.92;98243.44;5049687;28;20048;-85
2022/06/12 15:48:43;;;;;;;12.00;2.20;;;;;;;25.02;50.85;98230.44;5067119;28;20066;-85
2022/06/12 15:51:14;;;;;;;3.05;2.17;;;;;;;25.04;50.74;98235.56;5066224;28;20021;-86
2022/06/12 15:53:40;;;;;;;3.85;1.83;;;;;;;25.02;50.49;98230.44;5050059;28;20035;-85
2022/06/12 15:56:06;;;;;;;3.58;2.00;;;;;;;25.04;50.42;98236.38;5053393;28;20055;-92
2022/06/12 15:58:31;;;;;;;2.88;1.92;;;;;;;25.09;50.20;98233.84;5062712;28;20040;-89
2022/06/12 16:00:57;;;;;;;3.92;1.70;;;;;;;25.12;50.29;98227.25;5076755;28;20041;-81
2022/06/12 16:03:22;;;;;;;3.05;1.65;;;;;;;25.13;50.28;98228.03;5072176;28;20024;-89
2022/06/12 16:05:48;;;;;;;5.88;1.67;;;;;;;25.09;50.00;98225.00;5069385;28;20068;-90
2022/06/12 16:08:13;;;;;;;6.70;1.80;;;;;;;25.08;49.74;98237.56;5031138;28;20380;-85
2022/06/12 16:10:39;;;;;;;3.53;1.60;;;;;;;25.07;50.09;98227.91;5031243;28;20040;-84
2022/06/12 16:13:05;;;;;;;6.88;1.70;;;;;;;24.97;49.80;98219.63;5034047;28;20036;-85
2022/06/12 16:15:30;;;;;;;2.45;1.20;;;;;;;25.00;49.68;98235.19;5052016;28;20025;-82
2022/06/12 16:17:57;;;;;;;5.38;1.73;;;;;;;25.02;50.24;98229.63;5067970;28;20060;-79
2022/06/12 16:20:23;;;;;;;1.98;1.27;;;;;;;25.04;49.63;98249.72;5033333;28;20037;-77
2022/06/12 16:22:48;;;;;;;2.72;1.40;;;;;;;25.03;49.93;98241.91;5049829;28;20094;-77
2022/06/12 16:25:14;;;;;;;3.72;1.20;;;;;;;25.02;49.32;98240.31;5049670;28;20384;-77
2022/06/12 16:27:40;;;;;;;2.75;1.23;;;;;;;24.92;48.45;98249.66;5049663;28;20032;-76
2022/06/12 16:30:06;;;;;;;3.70;1.10;;;;;;;24.61;47.04;98247.91;5049537;28;20416;-80
2022/06/12 16:32:32;;;;;;;6.40;1.40;;;;;;;24.46;47.42;98253.53;5066663;28;20502;-79
2022/06/12 16:34:59;;;;;;;5.32;1.35;;;;;;;24.38;48.32;98251.16;5054971;28;20024;-79
2022/06/12 16:37:25;;;;;;;2.85;0.90;;;;;;;24.30;47.70;98238.09;5036527;28;20037;-77
2022/06/12 16:39:50;;;;;;;5.65;1.25;;;;;;;24.20;48.21;98234.06;5019891;28;20083;-78
2022/06/12 16:42:16;;;;;;;2.78;1.20;;;;;;;24.14;48.19;98239.44;5052632;28;20029;-77
2022/06/12 16:44:41;;;;;;;14.02;1.27;;;;;;;24.08;48.21;98235.78;5052726;28;20423;-77
2022/06/12 16:47:07;;;;;;;18.92;1.30;;;;;;;24.01;48.47;98238.50;5019669;28;20061;-77
2022/06/12 16:49:33;;;;;;;5.05;1.20;;;;;;;23.95;48.48;98246.56;5019459;28;20021;-76
2022/06/12 16:52:13;;;;;;;1.73;1.10;;;;;;;23.91;49.02;98251.50;5052829;28;20029;-77
2022/06/12 16:54:49;;;;;;;15.40;1.27;;;;;;;23.80;49.50;98246.84;5021306;28;20029;-76
2022/06/12 16:57:16;;;;;;;11.73;1.30;;;;;;;23.72;49.42;98249.75;5052430;28;20033;-77
2022/06/12 16:59:44;;;;;;;4.78;1.00;;;;;;;23.63;49.76;98250.00;5011250;28;20136;-79
2022/06/12 17:02:10;;;;;;;8.27;1.17;;;;;;;23.56;49.93;98243.06;5020087;28;20043;-76
2022/06/12 17:04:38;;;;;;;3.22;1.00;;;;;;;23.49;50.20;98235.91;5036149;28;20033;-79
2022/06/12 17:07:07;;;;;;;4.00;1.17;;;;;;;23.44;51.03;98242.94;5036513;28;20122;-82
2022/06/12 17:09:33;;;;;;;2.47;1.20;;;;;;;23.44;51.15;98256.25;5037313;28;20033;-72
2022/06/12 17:12:02;;;;;;;4.10;1.20;;;;;;;23.40;51.10;98260.34;5035930;28;20037;-76
2022/06/12 17:14:29;;;;;;;2.92;1.10;;;;;;;23.39;49.94;98272.03;5037123;28;20029;-83
2022/06/12 17:16:55;;;;;;;6.20;1.20;;;;;;;23.47;51.63;98282.47;5035713;28;20571;-78
2022/06/12 17:22:05;;;;;;;11.27;1.60;;;;;;;23.68;51.17;98284.00;5038011;28;20118;-78
2022/06/12 17:24:31;;;;;;;6.78;1.40;;;;;;;23.70;51.18;98291.78;5035853;28;20029;-76
2022/06/12 17:26:57;;;;;;;2.10;1.25;;;;;;;23.79;51.57;98309.97;5035178;28;20036;-76
2022/06/12 17:29:22;;;;;;;6.45;1.50;;;;;;;23.82;51.40;98320.19;5051994;28;20527;-74
2022/06/12 17:31:47;;;;;;;5.93;1.50;;;;;;;23.83;51.07;98321.88;5049432;28;20407;-83
2022/06/12 17:34:13;;;;;;;5.57;1.40;;;;;;;23.83;51.49;98315.69;5058594;28;20032;-78
2022/06/12 17:36:38;;;;;;;5.63;1.50;;;;;;;23.83;51.35;98329.00;5041668;28;20033;-77
2022/06/12 17:39:04;;;;;;;2.08;1.30;;;;;;;23.88;51.26;98329.22;5060329;28;20079;-76
2022/06/12 17:41:30;;;;;;;7.40;1.75;;;;;;;23.79;52.73;98317.97;5065984;28;20048;-85
2022/06/12 17:43:55;;;;;;;4.65;1.70;;;;;;;23.56;54.03;98315.84;5047871;28;20051;-76
2022/06/12 17:46:21;;;;;;;6.88;1.90;;;;;;;23.46;54.32;98323.44;5059878;28;20480;-85
2022/06/12 17:48:46;;;;;;;5.15;1.63;;;;;;;23.44;54.46;98312.19;5037937;28;20094;-78
2022/06/12 17:51:16;;;;;;;7.63;1.70;;;;;;;23.36;54.82;98315.09;5052605;28;20037;-79
2022/06/12 17:53:43;;;;;;;4.82;1.73;;;;;;;23.34;54.85;98322.44;5051115;28;20064;-75
2022/06/12 17:56:09;;;;;;;6.90;1.70;;;;;;;23.32;55.05;98313.84;5034827;28;20506;-75
2022/06/12 17:58:34;;;;;;;5.85;1.55;;;;;;;23.31;55.15;98302.41;5050301;28;20040;-75
2022/06/12 18:01:00;;;;;;;2.10;1.58;;;;;;;23.29;55.20;98302.59;5030445;28;20029;-77
2022/06/12 18:03:25;;;;;;;3.80;1.60;;;;;;;23.25;55.14;98303.22;5030221;28;20099;-76
2022/06/12 18:05:51;;;;;;;8.30;1.50;;;;;;;23.29;55.33;98317.75;5022820;28;20116;-78
2022/06/12 18:08:17;;;;;;;2.50;1.40;;;;;;;23.27;55.40;98315.28;5032108;28;20041;-75
2022/06/12 18:10:42;;;;;;;2.13;1.55;;;;;;;23.24;55.75;98326.34;5044679;28;20928;-74
2022/06/12 18:13:08;;;;;;;2.70;1.50;;;;;;;23.25;55.39;98333.31;5049731;28;20051;-74
2022/06/12 18:21:01;;;;;;;3.47;1.63;;;;;;;23.21;55.68;98331.28;5071471;28;20470;-76
2022/06/12 18:23:27;;;;;;;2.60;1.85;;;;;;;23.20;55.71;98357.09;5064918;28;20080;-74
2022/06/12 18:25:52;;;;;;;2.55;1.73;;;;;;;23.19;55.66;98352.00;5051040;28;20029;-76
2022/06/12 18:28:18;;;;;;;3.95;1.65;;;;;;;23.16;55.71;98341.75;5051398;28;20053;-75
2022/06/12 18:30:43;;;;;;;2.42;1.52;;;;;;;23.18;55.63;98345.00;5050028;28;20159;-75
2022/06/12 18:33:09;;;;;;;4.45;1.40;;;;;;;23.18;55.65;98347.69;5051609;28;20102;-74
2022/06/12 18:35:40;;;;;;;3.08;1.70;;;;;;;23.19;55.34;98352.78;5033891;28;20029;-75
2022/06/12 18:38:06;;;;;;;2.00;1.58;;;;;;;23.21;55.21;98363.25;5049713;28;20045;-77
2022/06/12 18:40:31;;;;;;;4.03;1.70;;;;;;;23.21;55.04;98356.06;5049924;28;20067;-80
2022/06/12 18:42:57;;;;;;;2.20;1.30;;;;;;;23.17;55.16;98349.53;5049617;28;20047;-75
2022/06/12 18:45:22;;;;;;;3.63;1.73;;;;;;;23.23;55.02;98371.84;5045979;28;20029;-79
2022/06/12 18:47:48;;;;;;;2.13;1.55;;;;;;;23.26;54.91;98368.75;5030588;28;20484;-81
2022/06/12 18:50:14;;;;;;;5.82;1.50;;;;;;;23.27;54.89;98373.88;5001515;28;20131;-81
2022/06/12 18:52:40;;;;;;;2.75;1.50;;;;;;;23.30;54.97;98370.00;5030263;28;20045;-82
2022/06/12 18:55:07;;;;;;;4.55;1.40;;;;;;;23.35;54.44;98380.81;5030468;28;20041;-83
2022/06/12 18:57:33;;;;;;;1.95;1.42;;;;;;;23.35;54.51;98388.00;5029791;28;20617;-84
2022/06/12 18:59:59;;;;;;;4.22;1.52;;;;;;;23.33;53.92;98385.56;5037371;28;20037;-79
2022/06/12 19:02:26;;;;;;;2.20;1.48;;;;;;;23.26;53.45;98390.06;5048912;28;20040;-79
2022/06/12 19:04:54;;;;;;;2.08;1.45;;;;;;;23.18;53.78;98393.75;5049891;28;20036;-80
2022/06/12 19:07:19;;;;;;;3.60;1.67;;;;;;;23.07;53.66;98384.53;5033105;28;20025;-79
2022/06/12 19:09:45;;;;;;;3.47;1.40;;;;;;;23.06;53.45;98388.22;5016980;28;20071;-78
2022/06/12 19:12:11;;;;;;;11.57;1.75;;;;;;;23.06;54.66;98387.41;5032582;28;20519;-77
2022/06/12 19:14:37;;;;;;;28.50;2.33;;;;;;;23.04;54.59;98394.75;5049665;28;20074;-78
2022/06/12 19:17:03;;;;;;;15.02;2.03;;;;;;;23.01;54.52;98390.69;5050811;28;20538;-78
2022/06/12 19:19:28;;;;;;;6.63;1.95;;;;;;;22.95;54.92;98389.66;5052128;28;20516;-84
2022/06/12 19:21:54;;;;;;;7.63;1.60;;;;;;;22.89;54.75;98392.31;5053923;28;20152;-78
2022/06/12 19:24:20;;;;;;;6.28;1.70;;;;;;;22.88;54.71;98393.34;5033363;28;20059;-78
2022/06/12 19:26:45;;;;;;;4.45;1.60;;;;;;;22.83;54.75;98388.63;5037752;28;20104;-79
2022/06/12 19:29:12;;;;;;;5.30;1.60;;;;;;;22.82;54.83;98391.50;5013604;28;20095;-78
2022/06/12 19:31:37;;;;;;;3.85;1.70;;;;;;;22.76;54.73;98385.97;5030970;28;20034;-79
2022/06/12 19:34:03;;;;;;;6.88;2.05;;;;;;;22.75;54.83;98386.19;5030457;28;20119;-79
2022/06/12 19:36:29;;;;;;;3.63;1.92;;;;;;;22.75;55.00;98386.19;5024018;28;20032;-79
2022/06/12 19:38:55;;;;;;;3.55;1.90;;;;;;;22.73;54.83;98386.38;5028594;28;20037;-79
2022/06/12 19:41:23;;;;;;;6.18;1.85;;;;;;;22.72;54.96;98381.25;5050649;28;20406;-78
2022/06/12 19:43:52;;;;;;;4.53;1.90;;;;;;;22.71;54.96;98387.63;5047455;28;20036;-78
2022/06/12 19:46:18;;;;;;;2.67;1.73;;;;;;;22.68;55.00;98380.03;5037158;28;20207;-76
2022/06/12 19:48:44;;;;;;;4.47;2.00;;;;;;;22.67;54.65;98381.06;5057247;28;20048;-78
2022/06/12 19:51:10;;;;;;;4.38;2.00;;;;;;;22.67;54.84;98373.88;5024363;28;20036;-78
2022/06/12 19:53:35;;;;;;;4.53;1.88;;;;;;;22.67;54.58;98373.88;5021806;28;20065;-77
2022/06/12 19:56:01;;;;;;;5.80;1.70;;;;;;;22.65;54.63;98367.16;5039167;28;20032;-76
2022/06/12 19:58:26;;;;;;;3.70;1.98;;;;;;;22.65;54.49;98375.13;5022965;28;20432;-78
2022/06/12 20:00:52;;;;;;;2.67;1.63;;;;;;;22.65;54.89;98373.28;5044039;28;20090;-77
2022/06/12 20:03:17;;;;;;;4.55;1.67;;;;;;;22.61;54.43;98377.34;5050092;28;20077;-77
2022/06/12 20:08:27;;;;;;;3.45;1.63;;;;;;;22.61;54.49;98384.53;5044600;28;20079;-78
2022/06/12 20:10:52;;;;;;;7.53;1.73;;;;;;;22.62;54.62;98391.50;5044111;28;20037;-77
2022/06/12 20:13:22;;;;;;;3.90;1.83;;;;;;;22.61;54.46;98392.50;5046585;28;20048;-78
2022/06/12 20:15:48;;;;;;;2.17;1.52;;;;;;;22.60;54.41;98391.69;5040097;28;20029;-79
2022/06/12 20:18:19;;;;;;;8.30;2.08;;;;;;;22.57;54.40;98394.75;5036865;28;20525;-78
2022/06/12 20:20:57;;;;;;;4.88;1.80;;;;;;;22.56;54.09;98395.78;5022403;28;20021;-78
2022/06/12 20:23:22;;;;;;;4.72;1.77;;;;;;;22.55;54.25;98404.78;5038470;28;20064;-77
2022/06/12 20:25:49;;;;;;;2.72;1.85;;;;;;;22.55;53.74;98405.59;5042433;28;20119;-78
2022/06/12 20:28:15;;;;;;;6.60;1.88;;;;;;;22.54;54.24;98401.28;5033565;28;20095;-78
2022/06/12 20:30:40;;;;;;;5.45;2.17;;;;;;;22.49;53.83;98406.41;5035438;28;20488;-77
2022/06/12 20:33:06;;;;;;;5.15;2.00;;;;;;;22.47;53.94;98405.81;5033967;28;20048;-78
2022/06/12 20:35:32;;;;;;;4.22;1.95;;;;;;;22.42;53.95;98402.91;5034709;28;20043;-77
2022/06/12 20:37:57;;;;;;;3.95;1.83;;;;;;;22.48;53.60;98411.94;5034862;28;20079;-78
2022/06/12 20:40:23;;;;;;;3.17;1.70;;;;;;;22.46;53.90;98408.66;5034961;28;20133;-79
2022/06/12 20:42:48;;;;;;;4.85;2.00;;;;;;;22.43;53.83;98399.25;5033975;28;20028;-79
2022/06/12 20:45:15;;;;;;;3.70;1.88;;;;;;;22.45;53.95;98407.81;5034961;28;20480;-77
2022/06/12 20:47:40;;;;;;;5.20;2.08;;;;;;;22.43;53.56;98409.06;5033384;28;20052;-77
2022/06/12 20:50:06;;;;;;;4.40;1.80;;;;;;;22.45;53.83;98409.69;5033723;28;20033;-78
2022/06/12 20:52:32;;;;;;;5.45;2.00;;;;;;;22.40;54.01;98402.31;5033258;28;20042;-76
2022/06/12 20:54:57;;;;;;;7.60;2.15;;;;;;;22.40;53.72;98412.94;5035329;28;20033;-77
2022/06/12 20:57:23;;;;;;;2.80;1.75;;;;;;;22.37;53.89;98398.19;5017082;28;20029;-78
2022/06/12 20:59:51;;;;;;;4.00;2.35;;;;;;;22.36;54.19;98401.06;5035091;28;20033;-79
2022/06/12 21:02:17;;;;;;;7.47;2.15;;;;;;;22.35;54.32;98402.91;5053493;28;20029;-79
2022/06/12 21:04:42;;;;;;;4.20;2.10;;;;;;;22.33;54.37;98409.44;5054639;28;20439;-77
2022/06/12 21:07:08;;;;;;;3.75;2.05;;;;;;;22.31;54.28;98395.53;5053200;28;20155;-76
2022/06/12 21:09:34;;;;;;;3.38;2.28;;;;;;;22.32;54.26;98410.47;5054801;28;20095;-76
2022/06/12 21:11:59;;;;;;;7.75;2.00;;;;;;;22.30;54.15;98392.06;5054488;28;20021;-76
2022/06/12 21:14:25;;;;;;;8.38;2.08;;;;;;;22.29;54.30;98400.19;5054464;28;20037;-78
2022/06/12 21:16:51;;;;;;;6.30;2.17;;;;;;;22.28;54.63;98393.22;5053121;28;20041;-76
2022/06/12 21:19:16;;;;;;;5.05;2.33;;;;;;;22.27;54.50;98389.75;5052900;28;20071;-76
2022/06/12 21:21:42;;;;;;;4.15;2.17;;;;;;;22.28;54.30;98385.25;5054010;28;20052;-76
2022/06/12 21:24:07;;;;;;;5.20;1.98;;;;;;;22.29;54.19;98392.22;5054538;28;20387;-76
2022/06/12 21:26:33;;;;;;;3.50;2.30;;;;;;;22.28;53.98;98398.56;5054274;28;20037;-78
2022/06/12 21:28:58;;;;;;;3.42;1.98;;;;;;;22.25;54.19;98386.50;5036507;28;20169;-77
2022/06/12 21:31:25;;;;;;;3.78;2.15;;;;;;;22.29;54.09;98387.72;5036511;28;20483;-78
2022/06/12 21:33:51;;;;;;;2.88;2.15;;;;;;;22.29;54.28;98402.88;5053959;28;20029;-76
2022/06/12 21:36:17;;;;;;;5.32;2.33;;;;;;;22.28;54.32;98401.22;5052738;28;20041;-76
2022/06/12 21:38:42;;;;;;;3.22;2.20;;;;;;;22.28;54.30;98391.41;5054307;28;20091;-77
2022/06/12 21:41:08;;;;;;;5.75;2.05;;;;;;;22.32;54.39;98403.31;5036221;28;20499;-78
2022/06/12 21:43:33;;;;;;;9.07;2.10;;;;;;;22.31;53.95;98396.38;5052641;28;20112;-77
2022/06/12 21:45:59;;;;;;;5.22;2.22;;;;;;;22.31;54.22;98392.88;5036136;28;20043;-77
2022/06/12 21:48:25;;;;;;;5.32;2.10;;;;;;;22.35;54.02;98394.91;5035933;28;20037;-76
2022/06/12 21:50:50;;;;;;;6.03;2.15;;;;;;;22.35;54.18;98389.59;5035919;28;20033;-76
2022/06/12 21:55:59;;;;;;;4.95;2.30;;;;;;;22.32;53.71;98384.69;5038698;28;20079;-76
2022/06/12 21:58:25;;;;;;;3.35;2.13;;;;;;;22.25;53.98;98375.88;5052247;28;20072;-77
2022/06/12 22:00:51;;;;;;;3.85;2.42;;;;;;;22.29;53.77;98386.91;5051757;28;20451;-76
2022/06/12 22:03:16;;;;;;;3.72;2.00;;;;;;;22.26;53.92;98389.97;5053521;28;20040;-77
2022/06/12 22:05:42;;;;;;;4.40;2.05;;;;;;;22.24;54.12;98392.81;5053690;28;20029;-77
2022/06/12 22:08:07;;;;;;;5.75;2.13;;;;;;;22.26;53.90;98395.28;5053365;28;20389;-76
2022/06/12 22:10:33;;;;;;;3.47;2.10;;;;;;;22.25;53.85;98401.63;5053031;28;20506;-77
2022/06/12 22:12:59;;;;;;;4.97;2.17;;;;;;;22.22;53.82;98394.88;5049924;28;20083;-77
2022/06/12 22:15:24;;;;;;;4.80;2.35;;;;;;;22.21;53.84;98398.53;5053091;28;20040;-76
2022/06/12 22:17:50;;;;;;;4.78;2.40;;;;;;;22.17;53.92;98397.28;5052240;28;20099;-76
2022/06/12 22:20:15;;;;;;;7.32;2.35;;;;;;;22.17;53.85;98397.28;5051867;28;20036;-76
2022/06/12 22:22:41;;;;;;;6.45;2.50;;;;;;;22.14;53.91;98411.81;5014950;28;20050;-77
2022/06/12 22:25:07;;;;;;;4.70;2.28;;;;;;;;;;5017875;28;20419;-77
2022/06/12 22:27:32;;;;;;;4.57;2.17;;;;;;;22.12;53.74;98405.88;5033062;28;20418;-76
2022/06/12 22:29:58;;;;;;;7.10;2.28;;;;;;;22.10;53.88;98405.25;5048222;28;20083;-76
2022/06/12 22:32:23;;;;;;;4.45;2.60;;;;;;;22.10;53.48;98399.94;5038575;28;20464;-76
2022/06/12 22:34:49;;;;;;;3.47;2.10;;;;;;;22.06;53.53;98401.38;5033402;28;20029;-75
2022/06/12 22:37:16;;;;;;;4.20;2.42;;;;;;;22.08;53.44;98409.16;5032912;28;20033;-75
2022/06/12 22:39:45;;;;;;;4.97;2.30;;;;;;;22.08;53.57;98407.31;5031861;28;20036;-76
2022/06/12 22:42:10;;;;;;;6.40;2.53;;;;;;;22.09;53.92;98408.09;5015605;28;20037;-75
2022/06/12 22:44:36;;;;;;;3.28;2.60;;;;;;;22.09;53.67;98398.31;5032731;28;20404;-75
2022/06/12 22:47:01;;;;;;;5.47;2.35;;;;;;;22.09;53.56;98392.16;5031085;28;20401;-76
2022/06/12 22:49:27;;;;;;;7.10;2.00;;;;;;;22.06;53.66;98398.72;5014738;28;20135;-76
2022/06/12 22:51:52;;;;;;;3.97;2.22;;;;;;;22.04;53.47;98382.13;5015275;28;20038;-75
2022/06/12 22:54:18;;;;;;;3.53;2.28;;;;;;;22.05;53.40;98391.75;5032621;28;20071;-75
2022/06/12 22:56:45;;;;;;;3.95;2.05;;;;;;;22.03;53.61;98397.25;5031443;28;20041;-75
2022/06/12 22:59:10;;;;;;;5.93;2.03;;;;;;;22.04;53.50;98392.75;5032514;28;20099;-76
2022/06/12 23:01:36;;;;;;;3.90;2.17;;;;;;;22.03;53.25;98404.44;5027973;28;20472;-73
2022/06/12 23:04:02;;;;;;;3.03;2.08;;;;;;;22.03;53.13;98420.38;5052466;28;20083;-82
2022/06/12 23:06:29;;;;;;;4.18;2.28;;;;;;;22.04;53.47;98414.03;5008390;28;20422;-82
2022/06/12 23:08:54;;;;;;;4.53;2.15;;;;;;;22.01;53.07;98415.25;5032504;28;20030;-81
2022/06/12 23:11:19;;;;;;;5.47;2.50;;;;;;;22.07;53.37;98434.06;5014903;28;20030;-81
2022/06/12 23:13:45;;;;;;;3.30;2.15;;;;;;;22.07;52.62;98428.75;5031095;28;20029;-81
2022/06/12 23:16:11;;;;;;;3.75;2.10;;;;;;;22.03;53.27;98421.19;5032307;28;20530;-81
2022/06/12 23:18:36;;;;;;;2.28;1.88;;;;;;;22.02;52.92;98432.81;5014717;28;20029;-81
2022/06/12 23:21:02;;;;;;;4.68;2.50;;;;;;;22.05;52.87;98435.09;5032515;28;20399;-82
2022/06/12 23:23:27;;;;;;;5.85;2.88;;;;;;;22.06;53.00;98435.94;5014262;28;20507;-83
2022/06/12 23:26:05;;;;;;;6.47;2.65;;;;;;;22.07;52.86;98439.38;5031117;28;20037;-81
2022/06/12 23:28:34;;;;;;;5.78;2.90;;;;;;;22.08;52.77;98455.16;5015420;28;20099;-81
2022/06/12 23:30:59;;;;;;;4.07;2.92;;;;;;;22.06;53.12;98435.94;5031297;28;20104;-81
2022/06/12 23:33:25;;;;;;;5.70;3.00;;;;;;;22.09;52.84;98440.84;5014689;28;20033;-81
2022/06/12 23:35:51;;;;;;;3.83;2.97;;;;;;;22.08;53.01;98441.84;5032143;28;20115;-80
2022/06/12 23:38:17;;;;;;;8.75;3.08;;;;;;;22.06;52.93;98435.94;5032283;28;20026;-81
2022/06/12 23:40:43;;;;;;;7.55;2.70;;;;;;;22.07;53.30;98444.72;5032075;28;20152;-80
2022/06/12 23:43:08;;;;;;;6.18;2.65;;;;;;;22.04;53.13;98433.47;5030896;28;20060;-80
2022/06/12 23:45:34;;;;;;;6.22;2.50;;;;;;;22.02;53.43;98437.31;5036167;28;20108;-81
2022/06/12 23:48:01;;;;;;;6.07;3.20;;;;;;;21.99;53.35;98427.09;5034995;28;20029;-81
2022/06/12 23:50:26;;;;;;;6.10;2.78;;;;;;;21.96;53.64;98417.66;5034904;28;20476;-81
2022/06/12 23:52:52;;;;;;;5.18;2.70;;;;;;;21.94;53.46;98427.69;5018336;28;20032;-81
2022/06/12 23:55:18;;;;;;;5.10;2.88;;;;;;;21.89;53.43;98421.34;5034774;28;20029;-82
2022/06/12 23:57:43;;;;;;;4.47;2.60;;;;;;;21.94;53.55;98418.91;5034806;28;20041;-81
